Time;durP1;ratioP1;P1;durP2;ratioP2;P2;SDS_P1;SDS_P2;PMS_P1;PMS_P2;Temp;Humidity;BMP_temperature;BMP_pressure;BME280_temperature;BME280_humidity;BME280_pressure;Samples;Min_cycle;Max_cycle;Signal;HPM_P1;HPM_P2
2020/12/18 00:01:20;;;;;;;24.13;14.32;;;;;;;;;;4981055;28;20053;-84
2020/12/18 00:04:02;;;;;;;22.95;13.65;;;;;;;;;;5005047;23;20745;-80
2020/12/18 00:07:28;;;;;;;23.58;12.98;;;;;;;;;;4945687;29;20051;-83
2020/12/18 00:10:45;;;;;;;26.00;14.48;;;;;;;;;;4930673;29;20054;-82
2020/12/18 00:13:53;;;;;;;25.48;13.95;;;;;;;;;;4926494;29;20051;-80
2020/12/18 00:17:15;;;;;;;25.88;13.77;;;;;;;;;;4916534;29;20044;-81
2020/12/18 00:20:10;;;;;;;24.83;13.98;;;;;;;;;;4985815;23;20066;-81
2020/12/18 00:22:38;;;;;;;24.83;14.35;;;;;;;;;;5008862;28;20046;-80
2020/12/18 00:25:04;;;;;;;23.63;13.90;;;;;;;;;;4962394;28;20065;-78
2020/12/18 00:27:31;;;;;;;26.55;14.98;;;;;;;;;;4991853;28;20053;-80
2020/12/18 00:30:03;;;;;;;27.50;14.55;;;;;;;;;;4990533;28;20053;-81
2020/12/18 00:32:35;;;;;;;26.90;13.60;;;;;;;;;;5008596;28;20043;-78
2020/12/18 00:35:03;;;;;;;21.10;12.70;;;;;;;;;;4993352;28;20043;-80
2020/12/18 00:37:38;;;;;;;27.60;14.27;;;;;;;;;;4976987;28;20466;-79
2020/12/18 00:40:07;;;;;;;25.60;14.02;;;;;;;;;;4990983;28;20183;-79
2020/12/18 00:42:39;;;;;;;25.15;14.18;;;;;;;;;;4996615;28;20054;-80
2020/12/18 00:45:13;;;;;;;24.42;14.27;;;;;;;;;;5013289;28;20042;-80
2020/12/18 00:47:41;;;;;;;26.25;14.35;;;;;;;;;;5013823;28;20163;-81
2020/12/18 00:50:08;;;;;;;24.58;13.75;;;;;;;;;;5014259;28;20043;-81
2020/12/18 00:52:34;;;;;;;25.40;13.73;;;;;;;;;;4996683;28;20042;-79
2020/12/18 00:55:01;;;;;;;22.48;12.75;;;;;;;;;;4996555;28;20054;-80
2020/12/18 00:57:27;;;;;;;25.83;13.15;;;;;;;;;;4980353;28;20035;-80
2020/12/18 00:59:56;;;;;;;25.85;13.52;;;;;;;;;;4977846;28;20116;-82
2020/12/18 01:02:23;;;;;;;23.48;12.73;;;;;;;;;;5009401;28;20046;-80
2020/12/18 01:04:49;;;;;;;23.85;13.70;;;;;;;;;;4980516;28;20030;-81
2020/12/18 01:07:18;;;;;;;27.20;12.38;;;;;;;;;;4997478;28;20089;-81
2020/12/18 01:09:46;;;;;;;25.00;13.07;;;;;;;;;;4978521;28;20043;-80
2020/12/18 01:12:18;;;;;;;23.48;12.65;;;;;;;;;;4974524;28;20080;-82
2020/12/18 01:14:44;;;;;;;24.88;12.98;;;;;;;;;;4957205;28;20114;-80
2020/12/18 01:17:11;;;;;;;23.40;13.10;;;;;;;;;;4975439;28;20047;-80
2020/12/18 01:19:38;;;;;;;25.73;13.32;;;;;;;;;;4989598;28;20116;-82
2020/12/18 01:22:06;;;;;;;24.20;12.65;;;;;;;;;;5006751;28;20046;-82
2020/12/18 01:24:32;;;;;;;20.45;12.10;;;;;;;;;;5006332;28;20198;-80
2020/12/18 01:26:59;;;;;;;22.15;12.57;;;;;;;;;;4971769;28;20047;-77
2020/12/18 01:29:26;;;;;;;20.85;11.95;;;;;;;;;;5005427;28;20062;-80
2020/12/18 01:31:53;;;;;;;19.98;11.68;;;;;;;;;;4973250;28;20050;-81
2020/12/18 01:34:21;;;;;;;21.35;12.30;;;;;;;;;;5006289;28;20327;-80
2020/12/18 01:36:49;;;;;;;23.05;11.90;;;;;;;;;;4989098;28;20121;-79
2020/12/18 01:39:16;;;;;;;25.48;13.65;;;;;;;;;;4988198;28;20038;-80
2020/12/18 01:41:43;;;;;;;22.75;12.25;;;;;;;;;;4989147;28;20049;-80
2020/12/18 01:44:09;;;;;;;25.42;12.77;;;;;;;;;;4986508;28;20046;-78
2020/12/18 01:46:38;;;;;;;24.95;12.60;;;;;;;;;;4988013;28;20155;-82
2020/12/18 01:49:05;;;;;;;23.80;12.82;;;;;;;;;;4990303;28;20042;-80
2020/12/18 01:51:47;;;;;;;24.77;13.00;;;;;;;;;;5006901;28;20038;-79
2020/12/18 01:54:14;;;;;;;26.00;13.02;;;;;;;;;;4988408;28;20073;-81
2020/12/18 01:56:40;;;;;;;27.05;13.82;;;;;;;;;;5006247;28;20340;-80
2020/12/18 01:59:07;;;;;;;25.65;13.40;;;;;;;;;;4988974;28;20113;-80
2020/12/18 02:01:33;;;;;;;25.60;13.52;;;;;;;;;;4973791;28;20070;-80
2020/12/18 02:03:59;;;;;;;27.27;13.98;;;;;;;;;;4972915;28;20449;-80
2020/12/18 02:06:25;;;;;;;25.85;13.35;;;;;;;;;;4988228;28;20141;-80
2020/12/18 02:08:52;;;;;;;27.73;13.75;;;;;;;;;;4970460;28;20097;-80
2020/12/18 02:11:21;;;;;;;26.00;13.50;;;;;;;;;;4975854;28;20048;-80
2020/12/18 02:13:57;;;;;;;25.63;12.77;;;;;;;;;;4970572;28;20042;-81
2020/12/18 02:16:24;;;;;;;23.52;12.13;;;;;;;;;;4988969;28;20073;-80
2020/12/18 02:18:55;;;;;;;25.90;12.52;;;;;;;;;;4973689;28;20209;-81
2020/12/18 02:21:25;;;;;;;22.33;11.27;;;;;;;;;;4990696;28;20105;-80
2020/12/18 02:23:57;;;;;;;22.42;11.40;;;;;;;;;;5011062;28;20069;-80
2020/12/18 02:26:26;;;;;;;23.85;12.25;;;;;;;;;;4994891;28;20118;-79
2020/12/18 02:28:52;;;;;;;22.73;11.63;;;;;;;;;;4993476;28;20043;-79
2020/12/18 02:31:20;;;;;;;22.42;11.27;;;;;;;;;;4993516;28;20051;-80
2020/12/18 02:33:47;;;;;;;24.98;11.32;;;;;;;;;;4992829;28;20050;-80
2020/12/18 02:36:27;;;;;;;22.45;10.98;;;;;;;;;;4976954;28;20042;-80
2020/12/18 02:39:00;;;;;;;21.58;11.68;;;;;;;;;;4990840;28;20093;-80
2020/12/18 02:41:35;;;;;;;20.85;8.57;;;;;;;;;;4992512;28;20050;-81
2020/12/18 02:44:11;;;;;;;22.90;10.82;;;;;;;;;;4978198;28;20038;-81
2020/12/18 02:46:37;;;;;;;20.88;10.13;;;;;;;;;;4989243;28;20070;-81
2020/12/18 02:49:06;;;;;;;18.73;10.50;;;;;;;;;;4989158;28;20465;-82
2020/12/18 02:51:33;;;;;;;17.25;10.25;;;;;;;;;;4990994;28;20050;-79
2020/12/18 02:54:00;;;;;;;22.00;10.00;;;;;;;;;;5010134;28;20066;-80
2020/12/18 02:56:27;;;;;;;20.02;10.07;;;;;;;;;;5008021;28;20043;-80
2020/12/18 02:58:53;;;;;;;24.50;9.82;;;;;;;;;;4992151;28;20050;-80
2020/12/18 03:01:20;;;;;;;19.00;9.73;;;;;;;;;;4976330;28;20046;-79
2020/12/18 03:03:46;;;;;;;18.92;9.18;;;;;;;;;;4992963;28;20355;-80
2020/12/18 03:06:13;;;;;;;18.27;8.20;;;;;;;;;;5010443;28;20054;-81
2020/12/18 03:08:39;;;;;;;17.38;8.90;;;;;;;;;;4975488;28;20050;-80
2020/12/18 03:11:06;;;;;;;20.63;8.15;;;;;;;;;;4975307;28;20046;-81
2020/12/18 03:13:32;;;;;;;17.63;8.75;;;;;;;;;;5006797;28;20461;-80
2020/12/18 03:16:00;;;;;;;17.63;8.18;;;;;;;;;;5007182;28;20046;-80
2020/12/18 03:18:26;;;;;;;17.27;7.90;;;;;;;;;;5009484;28;20102;-80
2020/12/18 03:20:53;;;;;;;12.50;7.13;;;;;;;;;;4975617;28;20113;-79
2020/12/18 03:23:19;;;;;;;16.42;7.63;;;;;;;;;;4989749;28;20145;-79
2020/12/18 03:25:46;;;;;;;17.10;7.50;;;;;;;;;;4974831;28;20073;-81
2020/12/18 03:28:12;;;;;;;16.10;7.70;;;;;;;;;;4975017;28;20042;-82
2020/12/18 03:30:38;;;;;;;14.95;7.60;;;;;;;;;;4974625;28;20430;-80
2020/12/18 03:33:06;;;;;;;15.65;7.60;;;;;;;;;;4990655;28;20042;-80
2020/12/18 03:35:44;;;;;;;11.95;6.90;;;;;;;;;;4991540;28;20046;-81
2020/12/18 03:38:11;;;;;;;14.60;7.03;;;;;;;;;;4975685;28;20088;-81
2020/12/18 03:40:41;;;;;;;18.35;7.25;;;;;;;;;;5007864;28;20042;-80
2020/12/18 03:43:08;;;;;;;13.18;6.40;;;;;;;;;;4974405;28;20050;-79
2020/12/18 03:45:38;;;;;;;13.45;6.28;;;;;;;;;;4988716;28;20092;-79
2020/12/18 03:48:05;;;;;;;14.32;6.70;;;;;;;;;;4990457;28;20046;-80
2020/12/18 03:50:32;;;;;;;16.90;6.57;;;;;;;;;;4990214;28;20141;-80
2020/12/18 03:53:02;;;;;;;16.58;7.18;;;;;;;;;;4989839;28;20086;-79
2020/12/18 03:55:29;;;;;;;16.90;6.97;;;;;;;;;;4991135;28;20055;-80
2020/12/18 03:57:58;;;;;;;14.98;6.82;;;;;;;;;;4991608;28;20058;-80
2020/12/18 04:00:27;;;;;;;15.57;6.85;;;;;;;;;;4973708;28;20490;-80
2020/12/18 04:02:57;;;;;;;14.10;7.00;;;;;;;;;;5003949;28;20045;-80
2020/12/18 04:05:24;;;;;;;17.98;7.32;;;;;;;;;;4987322;28;20050;-80
2020/12/18 04:07:52;;;;;;;15.07;7.53;;;;;;;;;;4988985;28;20039;-80
2020/12/18 04:10:21;;;;;;;13.32;7.03;;;;;;;;;;4974010;28;20046;-81
2020/12/18 04:12:53;;;;;;;17.02;8.05;;;;;;;;;;5008961;28;20042;-82
2020/12/18 04:15:23;;;;;;;12.73;6.32;;;;;;;;;;5008101;28;20039;-80
2020/12/18 04:17:53;;;;;;;14.27;6.70;;;;;;;;;;4993981;28;20124;-81
2020/12/18 04:20:22;;;;;;;13.85;6.68;;;;;;;;;;5009722;28;20047;-80
2020/12/18 04:22:55;;;;;;;16.70;7.47;;;;;;;;;;4996336;28;20074;-80
2020/12/18 04:25:24;;;;;;;12.88;6.78;;;;;;;;;;4993157;28;20113;-79
2020/12/18 04:27:55;;;;;;;14.13;6.68;;;;;;;;;;4976651;28;20057;-80
2020/12/18 04:30:25;;;;;;;15.45;7.00;;;;;;;;;;5011097;28;20041;-77
2020/12/18 04:32:51;;;;;;;14.88;7.35;;;;;;;;;;5012295;28;20058;-80
2020/12/18 04:35:18;;;;;;;15.32;6.68;;;;;;;;;;5013114;28;20039;-79
2020/12/18 04:37:44;;;;;;;14.88;6.82;;;;;;;;;;4977296;28;20501;-80
2020/12/18 04:40:11;;;;;;;12.20;6.55;;;;;;;;;;4988053;28;20050;-80
2020/12/18 04:42:38;;;;;;;15.43;6.97;;;;;;;;;;5005170;28;20100;-81
2020/12/18 04:45:05;;;;;;;15.45;7.35;;;;;;;;;;5004742;28;20042;-81
2020/12/18 04:47:42;;;;;;;15.60;7.03;;;;;;;;;;5005476;28;20042;-80
2020/12/18 04:50:08;;;;;;;;;;;;;;;;;;4988228;28;20046;-81
2020/12/18 04:52:37;;;;;;;13.85;6.70;;;;;;;;;;5005658;28;19936;-80
2020/12/18 04:55:04;;;;;;;16.05;7.20;;;;;;;;;;5005806;28;20042;-81
2020/12/18 04:57:33;;;;;;;17.25;7.43;;;;;;;;;;5006906;28;20514;-81
2020/12/18 05:00:03;;;;;;;15.90;7.25;;;;;;;;;;4988931;28;20039;-80
2020/12/18 05:02:30;;;;;;;14.00;7.22;;;;;;;;;;4987752;28;20044;-81
2020/12/18 05:05:00;;;;;;;16.50;6.85;;;;;;;;;;4988406;28;20052;-84
2020/12/18 05:07:31;;;;;;;14.65;6.53;;;;;;;;;;5008269;28;20106;-80
2020/12/18 05:10:00;;;;;;;13.05;6.05;;;;;;;;;;5007645;28;20077;-80
2020/12/18 05:12:27;;;;;;;15.90;6.40;;;;;;;;;;5006679;28;20422;-82
2020/12/18 05:14:53;;;;;;;14.88;6.82;;;;;;;;;;4987580;28;20049;-81
2020/12/18 05:17:23;;;;;;;14.27;6.13;;;;;;;;;;5005005;28;20054;-82
2020/12/18 05:19:51;;;;;;;15.13;6.50;;;;;;;;;;5005723;28;20050;-81
2020/12/18 05:22:21;;;;;;;11.50;5.78;;;;;;;;;;5005756;28;20562;-82
2020/12/18 05:24:54;;;;;;;12.15;6.00;;;;;;;;;;5002583;28;20054;-82
2020/12/18 05:27:24;;;;;;;11.70;6.20;;;;;;;;;;4987525;28;20073;-82
2020/12/18 05:29:50;;;;;;;13.88;5.93;;;;;;;;;;5004329;28;20137;-82
2020/12/18 05:32:17;;;;;;;12.38;6.13;;;;;;;;;;5004642;28;20210;-82
2020/12/18 05:34:47;;;;;;;10.18;5.78;;;;;;;;;;5004660;28;20038;-81
2020/12/18 05:37:19;;;;;;;11.10;6.10;;;;;;;;;;5006830;28;20053;-81
2020/12/18 05:39:50;;;;;;;12.73;6.50;;;;;;;;;;4981641;28;20838;-80
2020/12/18 05:42:22;;;;;;;15.63;7.10;;;;;;;;;;5002245;28;20133;-81
2020/12/18 05:44:52;;;;;;;15.57;7.32;;;;;;;;;;5010040;28;20069;-83
2020/12/18 05:47:27;;;;;;;12.23;7.35;;;;;;;;;;4998323;28;20069;-81
2020/12/18 05:50:09;;;;;;;17.02;7.25;;;;;;;;;;5014290;28;20090;-81
2020/12/18 05:52:40;;;;;;;13.93;6.68;;;;;;;;;;4991417;28;20117;-81
2020/12/18 05:55:37;;;;;;;14.23;7.32;;;;;;;;;;4979237;28;20042;-80
2020/12/18 05:58:14;;;;;;;14.20;7.45;;;;;;;;;;5005733;28;20049;-80
2020/12/18 06:00:47;;;;;;;14.57;6.72;;;;;;;;;;5004341;28;20078;-80
2020/12/18 06:03:32;;;;;;;13.43;5.85;;;;;;;;;;5001774;28;20050;-80
2020/12/18 06:06:05;;;;;;;16.77;5.25;;;;;;;;;;4992636;28;20110;-81
2020/12/18 06:11:40;;;;;;;;;;;;;;;;;;5005015;28;20057;-80
2020/12/18 06:14:11;;;;;;;12.10;5.07;;;;;;;;;;4986803;28;19932;-82
2020/12/18 06:16:42;;;;;;;10.15;4.70;;;;;;;;;;4987921;28;20126;-81
2020/12/18 06:19:10;;;;;;;10.65;4.15;;;;;;;;;;5001888;23;20133;-83
2020/12/18 06:21:36;;;;;;;8.38;3.95;;;;;;;;;;4980200;28;20061;-83
2020/12/18 06:24:03;;;;;;;8.45;3.80;;;;;;;;;;5014021;28;20062;-84
2020/12/18 06:26:31;;;;;;;8.82;3.72;;;;;;;;;;5016598;28;20111;-83
2020/12/18 06:29:01;;;;;;;7.65;3.70;;;;;;;;;;5019468;28;20056;-83
2020/12/18 06:41:46;;;;;;;10.20;3.83;;;;;;;;;;4938605;29;20048;-79
2020/12/18 06:44:51;;;;;;;;;;;;;;;;;;;;;
2020/12/18 06:51:35;;;;;;;9.05;3.33;;;;;;;;;;4940309;29;20051;-80
2020/12/18 06:54:38;;;;;;;11.00;3.65;;;;;;;;;;4940537;29;20475;-81
2020/12/18 06:57:56;;;;;;;8.50;3.60;;;;;;;;;;4933957;29;20040;-82
2020/12/18 07:01:07;;;;;;;7.00;3.55;;;;;;;;;;4920960;29;20573;-79
2020/12/18 07:08:02;;;;;;;7.78;3.22;;;;;;;;;;4912434;29;20484;-79
2020/12/18 07:16:29;;;;;;;;;;;;;;;;;;;;;
2020/12/18 07:19:55;;;;;;;;;;;;;;;;;;;;;
2020/12/18 07:26:43;;;;;;;11.38;3.08;;;;;;;;;;4849781;29;20248;-79
2020/12/18 07:29:45;;;;;;;8.98;3.55;;;;;;;;;;4924956;28;20139;-81
2020/12/18 07:32:16;;;;;;;10.07;3.55;;;;;;;;;;4957506;28;20074;-80
2020/12/18 07:35:10;;;;;;;8.77;3.10;;;;;;;;;;4960306;28;20043;-80
2020/12/18 07:38:22;;;;;;;8.20;2.60;;;;;;;;;;4959567;28;20043;-79
2020/12/18 07:41:00;;;;;;;8.82;2.90;;;;;;;;;;4957113;28;20098;-80
2020/12/18 07:43:56;;;;;;;6.60;2.70;;;;;;;;;;4956606;28;20119;-80
2020/12/18 07:46:30;;;;;;;7.10;2.95;;;;;;;;;;4955302;28;20126;-80
2020/12/18 07:49:24;;;;;;;8.30;3.65;;;;;;;;;;4952451;29;20579;-79
2020/12/18 07:52:03;;;;;;;7.35;3.40;;;;;;;;;;4952101;29;21536;-79
2020/12/18 07:55:04;;;;;;;9.67;3.80;;;;;;;;;;4963884;28;20047;-81
2020/12/18 07:57:53;;;;;;;;;;;;;;;;;;;;;
2020/12/18 08:01:12;;;;;;;9.15;4.40;;;;;;;;;;4957319;28;20358;-86
2020/12/18 08:04:11;;;;;;;12.07;4.73;;;;;;;;;;4896915;29;20199;-79
2020/12/18 08:06:55;;;;;;;12.30;4.80;;;;;;;;;;4939804;29;20058;-79
2020/12/18 08:09:55;;;;;;;12.75;5.68;;;;;;;;;;4955373;28;20107;-80
2020/12/18 08:12:34;;;;;;;16.05;5.30;;;;;;;;;;4941656;29;20063;-81
2020/12/18 08:15:15;;;;;;;14.00;4.65;;;;;;;;;;4940822;29;20040;-79
2020/12/18 08:18:31;;;;;;;9.55;5.00;;;;;;;;;;4899731;29;20503;-80
2020/12/18 08:22:03;;;;;;;12.32;5.40;;;;;;;;;;4861641;29;20072;-80
2020/12/18 08:25:02;;;;;;;11.65;5.13;;;;;;;;;;4783371;29;20128;-81
2020/12/18 08:31:54;;;;;;;8.30;3.58;;;;;;;;;;4770024;30;20222;-79
2020/12/18 08:34:42;;;;;;;6.85;2.40;;;;;;;;;;4757226;30;20489;-80
2020/12/18 08:37:40;;;;;;;5.00;2.00;;;;;;;;;;4784588;30;20138;-81
2020/12/18 08:40:28;;;;;;;4.07;2.10;;;;;;;;;;4772401;30;20051;-80
2020/12/18 08:47:04;;;;;;;6.57;1.80;;;;;;;;;;4843063;29;20439;-78
2020/12/18 08:50:00;;;;;;;7.93;1.80;;;;;;;;;;4867022;29;20149;-81
2020/12/18 08:52:53;;;;;;;6.72;1.67;;;;;;;;;;4880800;29;20049;-80
2020/12/18 08:55:30;;;;;;;3.60;1.52;;;;;;;;;;4882647;29;20132;-82
2020/12/18 08:58:23;;;;;;;4.43;1.70;;;;;;;;;;4883179;29;20048;-81
2020/12/18 09:01:27;;;;;;;4.57;1.48;;;;;;;;;;4882845;29;20049;-80
2020/12/18 09:04:17;;;;;;;4.28;1.42;;;;;;;;;;4878648;29;20051;-83
2020/12/18 09:07:22;;;;;;;5.45;1.90;;;;;;;;;;4821432;29;20118;-81
2020/12/18 09:13:21;;;;;;;7.32;2.05;;;;;;;;;;4972736;28;20558;-82
2020/12/18 09:16:23;;;;;;;5.57;2.17;;;;;;;;;;4952908;28;20295;-80
2020/12/18 09:19:16;;;;;;;3.50;1.42;;;;;;;;;;4898542;29;20060;-81
2020/12/18 09:21:45;;;;;;;4.80;1.92;;;;;;;;;;4910187;29;20179;-81
2020/12/18 09:24:30;;;;;;;7.82;2.33;;;;;;;;;;4915743;29;20108;-80
2020/12/18 09:27:40;;;;;;;5.95;1.77;;;;;;;;;;4912102;29;20048;-81
2020/12/18 09:30:46;;;;;;;11.82;1.95;;;;;;;;;;4913843;29;20059;-80
2020/12/18 09:37:30;;;;;;;5.28;1.83;;;;;;;;;;4914007;29;20524;-81
2020/12/18 09:40:56;;;;;;;5.97;1.52;;;;;;;;;;4906960;29;20092;-79
2020/12/18 09:47:55;;;;;;;;;;;;;;;;;;;;;
2020/12/18 09:57:55;;;;;;;3.50;1.50;;;;;;;;;;4896193;29;20048;-81
2020/12/18 10:01:52;;;;;;;;;;;;;;;;;;;;;
2020/12/18 10:05:10;;;;;;;4.18;1.40;;;;;;;;;;4888425;29;20059;-83
2020/12/18 10:08:09;;;;;;;2.80;1.40;;;;;;;;;;4889479;29;20608;-81
2020/12/18 10:11:25;;;;;;;3.47;1.38;;;;;;;;;;4825621;29;20648;-81
2020/12/18 10:14:57;;;;;;;5.88;1.70;;;;;;;;;;4913113;29;20052;-81
2020/12/18 10:18:09;;;;;;;3.90;1.35;;;;;;;;;;4911062;29;20329;-82
2020/12/18 10:21:04;;;;;;;3.55;1.10;;;;;;;;;;4913360;29;20049;-82
2020/12/18 10:24:17;;;;;;;4.63;1.20;;;;;;;;;;4880268;29;20132;-80
2020/12/18 10:27:04;;;;;;;;;;;;;;;;;;4893272;29;20115;-81
2020/12/18 10:30:42;;;;;;;4.57;1.30;;;;;;;;;;4895369;29;19928;-81
2020/12/18 10:33:44;;;;;;;5.53;1.30;;;;;;;;;;4919231;29;20112;-81
2020/12/18 10:36:57;;;;;;;4.80;1.55;;;;;;;;;;4915802;29;20190;-79
2020/12/18 10:43:12;;;;;;;3.65;1.10;;;;;;;;;;4991366;28;20053;-79
2020/12/18 10:45:46;;;;;;;5.03;1.30;;;;;;;;;;4991043;28;20584;-80
2020/12/18 10:48:48;;;;;;;3.85;1.10;;;;;;;;;;4970282;28;20470;-80
2020/12/18 10:51:32;;;;;;;3.58;1.35;;;;;;;;;;4953333;28;20425;-78
2020/12/18 10:57:51;;;;;;;4.38;1.25;;;;;;;;;;4994073;28;20138;-80
2020/12/18 11:00:52;;;;;;;5.50;1.42;;;;;;;;;;4988668;28;20047;-81
2020/12/18 11:03:25;;;;;;;3.75;1.20;;;;;;;;;;4976211;28;20053;-81
2020/12/18 11:06:03;;;;;;;5.15;1.23;;;;;;;;;;4953864;28;20665;-81
2020/12/18 11:09:02;;;;;;;8.25;1.50;;;;;;;;;;4969193;28;20038;-79
2020/12/18 11:12:10;;;;;;;4.22;1.08;;;;;;;;;;4983085;28;20117;-81
2020/12/18 11:18:46;;;;;;;3.40;1.05;;;;;;;;;;4961892;28;20150;-81
2020/12/18 11:21:32;;;;;;;6.35;0.90;;;;;;;;;;4975295;28;20046;-81
2020/12/18 11:23:59;;;;;;;4.13;0.90;;;;;;;;;;4975390;28;20150;-82
2020/12/18 11:26:34;;;;;;;2.58;0.90;;;;;;;;;;4974572;28;20046;-80
2020/12/18 11:29:06;;;;;;;4.22;1.15;;;;;;;;;;4978829;28;20038;-82
2020/12/18 11:31:54;;;;;;;6.25;1.15;;;;;;;;;;4991222;28;20043;-82
2020/12/18 11:34:28;;;;;;;4.15;0.98;;;;;;;;;;4989169;28;20061;-81
2020/12/18 11:37:13;;;;;;;;;;;;;;;;;;;;;
2020/12/18 11:40:06;;;;;;;1.85;0.90;;;;;;;;;;4994469;28;20070;-79
2020/12/18 11:42:55;;;;;;;2.83;1.08;;;;;;;;;;4993497;28;20045;-81
2020/12/18 11:45:28;;;;;;;2.55;0.70;;;;;;;;;;4998050;28;20153;-77
2020/12/18 11:47:54;;;;;;;2.70;0.73;;;;;;;;;;4971337;28;20042;-80
2020/12/18 11:50:29;;;;;;;3.35;0.90;;;;;;;;;;5003670;28;20042;-79
2020/12/18 11:53:09;;;;;;;2.05;0.88;;;;;;;;;;4995410;28;20208;-81
2020/12/18 11:56:08;;;;;;;2.97;0.95;;;;;;;;;;4993996;28;20133;-80
2020/12/18 11:58:38;;;;;;;1.88;0.75;;;;;;;;;;4996142;28;20042;-80
2020/12/18 12:01:19;;;;;;;2.70;0.85;;;;;;;;;;4988302;28;20043;-81
2020/12/18 12:03:57;;;;;;;1.45;0.80;;;;;;;;;;4979448;28;20066;-79
2020/12/18 12:06:26;;;;;;;3.78;1.00;;;;;;;;;;4996749;28;20042;-82
2020/12/18 12:09:03;;;;;;;1.67;0.80;;;;;;;;;;4994630;28;20050;-80
2020/12/18 12:11:38;;;;;;;2.00;0.77;;;;;;;;;;4994905;28;20046;-81
2020/12/18 12:14:05;;;;;;;1.75;0.70;;;;;;;;;;4990174;28;20438;-80
2020/12/18 12:16:35;;;;;;;3.80;1.17;;;;;;;;;;4994209;28;20038;-79
2020/12/18 12:19:02;;;;;;;3.60;1.10;;;;;;;;;;4975425;28;20034;-79
2020/12/18 12:21:32;;;;;;;2.85;0.80;;;;;;;;;;5021460;23;20037;-81
2020/12/18 12:23:58;;;;;;;3.25;0.80;;;;;;;;;;5021661;28;20073;-79
2020/12/18 12:26:25;;;;;;;2.83;1.02;;;;;;;;;;5015410;28;20041;-80
2020/12/18 12:28:51;;;;;;;2.60;1.00;;;;;;;;;;4998081;28;20044;-81
2020/12/18 12:31:19;;;;;;;3.83;1.48;;;;;;;;;;5017364;28;20133;-81
2020/12/18 12:33:45;;;;;;;4.15;1.35;;;;;;;;;;5019733;28;20037;-80
2020/12/18 12:36:21;;;;;;;4.13;1.20;;;;;;;;;;5015755;28;20042;-80
2020/12/18 12:38:47;;;;;;;3.25;1.20;;;;;;;;;;5014021;28;20073;-80
2020/12/18 12:41:14;;;;;;;5.28;1.40;;;;;;;;;;5015385;28;20049;-80
2020/12/18 12:43:40;;;;;;;4.78;1.10;;;;;;;;;;4978938;28;20038;-81
2020/12/18 12:46:08;;;;;;;6.32;1.10;;;;;;;;;;4998277;28;20057;-81
2020/12/18 12:48:35;;;;;;;2.80;1.08;;;;;;;;;;5015681;28;20050;-81
2020/12/18 12:51:03;;;;;;;3.80;0.95;;;;;;;;;;5013248;28;20038;-81
2020/12/18 12:53:29;;;;;;;4.82;1.13;;;;;;;;;;4996972;28;20049;-80
2020/12/18 12:55:56;;;;;;;2.85;0.88;;;;;;;;;;4981866;28;20038;-80
2020/12/18 12:58:22;;;;;;;2.40;1.10;;;;;;;;;;5015561;28;20072;-80
2020/12/18 13:00:48;;;;;;;2.67;1.00;;;;;;;;;;5017391;28;20061;-80
2020/12/18 13:03:15;;;;;;;3.65;1.25;;;;;;;;;;4997563;28;20038;-79
2020/12/18 13:05:44;;;;;;;4.78;1.20;;;;;;;;;;5015697;28;20042;-81
2020/12/18 13:08:11;;;;;;;4.90;1.13;;;;;;;;;;5016498;28;20057;-80
2020/12/18 13:10:41;;;;;;;3.80;1.58;;;;;;;;;;5015778;28;20049;-80
2020/12/18 13:13:08;;;;;;;3.10;1.33;;;;;;;;;;5014861;28;20041;-80
2020/12/18 13:15:34;;;;;;;2.38;1.15;;;;;;;;;;5032695;28;20045;-78
2020/12/18 13:18:01;;;;;;;3.42;1.33;;;;;;;;;;5033355;28;20045;-78
2020/12/18 13:20:27;;;;;;;3.92;1.17;;;;;;;;;;5035546;28;20037;-80
2020/12/18 13:22:54;;;;;;;5.50;1.30;;;;;;;;;;5001625;28;20045;-81
2020/12/18 13:25:24;;;;;;;2.45;1.10;;;;;;;;;;5018352;28;20049;-79
2020/12/18 13:27:53;;;;;;;5.13;1.38;;;;;;;;;;5039506;28;20041;-82
2020/12/18 13:30:22;;;;;;;2.88;1.00;;;;;;;;;;5043747;28;20068;-79
2020/12/18 13:32:49;;;;;;;3.38;1.20;;;;;;;;;;5041929;28;20409;-79
2020/12/18 13:35:16;;;;;;;6.97;0.82;;;;;;;;;;5025315;28;20052;-79
2020/12/18 13:37:42;;;;;;;7.10;1.23;;;;;;;;;;5043883;28;20049;-81
2020/12/18 13:40:11;;;;;;;5.88;1.45;;;;;;;;;;5028179;28;20037;-81
2020/12/18 13:42:38;;;;;;;9.32;1.55;;;;;;;;;;5041846;28;20041;-80
2020/12/18 13:45:05;;;;;;;4.88;1.00;;;;;;;;;;5009059;28;20095;-82
2020/12/18 13:47:36;;;;;;;5.03;0.77;;;;;;;;;;5021877;28;20057;-78
2020/12/18 13:50:02;;;;;;;2.60;0.70;;;;;;;;;;5042191;28;20046;-80
2020/12/18 13:52:28;;;;;;;9.48;0.70;;;;;;;;;;5021707;28;20045;-81
2020/12/18 13:54:54;;;;;;;5.10;0.80;;;;;;;;;;5020250;28;20125;-81
2020/12/18 13:57:21;;;;;;;2.58;0.90;;;;;;;;;;5037298;28;20064;-78
2020/12/18 13:59:47;;;;;;;5.88;0.80;;;;;;;;;;4989347;28;20051;-81
2020/12/18 14:02:14;;;;;;;1.90;0.90;;;;;;;;;;5020677;28;20133;-81
2020/12/18 14:04:41;;;;;;;4.13;0.70;;;;;;;;;;5022409;28;20076;-79
2020/12/18 14:07:07;;;;;;;2.22;0.60;;;;;;;;;;4983797;28;20046;-80
2020/12/18 14:09:34;;;;;;;6.72;0.70;;;;;;;;;;4998474;28;20046;-81
2020/12/18 14:12:01;;;;;;;3.22;0.70;;;;;;;;;;4999947;28;20053;-80
2020/12/18 14:14:27;;;;;;;6.75;1.00;;;;;;;;;;4999565;28;20481;-79
2020/12/18 14:16:53;;;;;;;5.47;0.77;;;;;;;;;;5000042;28;20056;-80
2020/12/18 14:19:19;;;;;;;3.95;0.93;;;;;;;;;;5000011;28;20052;-81
2020/12/18 14:21:48;;;;;;;2.33;0.98;;;;;;;;;;4999825;28;20050;-82
2020/12/18 14:24:15;;;;;;;5.88;1.50;;;;;;;;;;4999452;28;20042;-79
2020/12/18 14:26:41;;;;;;;1.70;0.73;;;;;;;;;;4999469;28;20046;-80
2020/12/18 14:29:10;;;;;;;1.48;0.70;;;;;;;;;;4998782;28;20108;-80
2020/12/18 14:31:37;;;;;;;3.50;0.82;;;;;;;;;;5003331;28;20115;-79
2020/12/18 14:34:04;;;;;;;2.13;0.90;;;;;;;;;;5017624;28;20042;-83
2020/12/18 14:36:30;;;;;;;4.13;0.93;;;;;;;;;;4983624;28;20048;-81
2020/12/18 14:38:56;;;;;;;3.38;1.00;;;;;;;;;;5017859;28;20045;-81
2020/12/18 14:41:22;;;;;;;2.65;1.10;;;;;;;;;;5002154;28;20049;-81
2020/12/18 14:43:48;;;;;;;2.55;0.93;;;;;;;;;;4998520;28;20044;-80
2020/12/18 14:46:14;;;;;;;6.63;0.90;;;;;;;;;;5013179;28;20061;-79
2020/12/18 14:48:41;;;;;;;5.20;1.13;;;;;;;;;;5018613;28;20049;-79
2020/12/18 14:51:08;;;;;;;4.30;1.13;;;;;;;;;;5000929;28;20477;-78
2020/12/18 14:53:35;;;;;;;4.40;1.23;;;;;;;;;;5002884;28;20559;-81
2020/12/18 14:56:05;;;;;;;2.78;1.15;;;;;;;;;;4987128;28;20060;-80
2020/12/18 14:58:31;;;;;;;5.53;1.08;;;;;;;;;;5019708;28;20038;-81
2020/12/18 15:00:58;;;;;;;6.63;1.90;;;;;;;;;;4999302;28;20057;-81
2020/12/18 15:03:24;;;;;;;5.13;1.85;;;;;;;;;;5004462;28;20068;-80
2020/12/18 15:05:52;;;;;;;5.78;1.70;;;;;;;;;;5005267;28;20680;-80
2020/12/18 15:08:18;;;;;;;5.20;1.20;;;;;;;;;;5003433;28;20453;-81
2020/12/18 15:10:45;;;;;;;4.13;1.10;;;;;;;;;;5019444;28;20077;-81
2020/12/18 15:13:27;;;;;;;4.28;1.30;;;;;;;;;;5019424;28;20409;-80
2020/12/18 15:15:54;;;;;;;3.88;1.35;;;;;;;;;;4999635;28;20116;-82
2020/12/18 15:18:20;;;;;;;7.97;1.48;;;;;;;;;;5020177;28;20048;-79
2020/12/18 15:20:46;;;;;;;4.35;1.52;;;;;;;;;;5000821;28;20041;-79
2020/12/18 15:23:12;;;;;;;4.18;1.48;;;;;;;;;;5000651;28;20058;-79
2020/12/18 15:25:39;;;;;;;5.78;1.50;;;;;;;;;;5018488;28;20516;-77
2020/12/18 15:28:05;;;;;;;9.93;2.20;;;;;;;;;;5018793;28;20050;-78
2020/12/18 15:30:31;;;;;;;4.70;1.40;;;;;;;;;;5020441;28;20046;-78
2020/12/18 15:32:57;;;;;;;5.05;1.45;;;;;;;;;;5018882;28;20110;-81
2020/12/18 15:35:23;;;;;;;4.40;1.55;;;;;;;;;;5019800;28;20276;-81
2020/12/18 15:37:52;;;;;;;5.80;1.50;;;;;;;;;;4997177;28;20038;-78
2020/12/18 15:40:19;;;;;;;6.30;1.45;;;;;;;;;;4985163;28;20053;-78
2020/12/18 15:42:46;;;;;;;3.10;1.48;;;;;;;;;;5016181;28;20069;-81
2020/12/18 15:45:13;;;;;;;5.45;1.60;;;;;;;;;;5023880;28;20133;-80
2020/12/18 15:47:39;;;;;;;3.05;1.48;;;;;;;;;;5006726;28;20049;-79
2020/12/18 15:50:06;;;;;;;4.85;1.95;;;;;;;;;;4991129;28;20073;-80
2020/12/18 15:52:33;;;;;;;4.10;1.73;;;;;;;;;;5024622;28;20072;-79
2020/12/18 15:54:59;;;;;;;4.00;1.70;;;;;;;;;;5004779;28;20101;-79
2020/12/18 15:57:26;;;;;;;9.05;2.25;;;;;;;;;;5021418;28;20046;-80
2020/12/18 15:59:52;;;;;;;3.67;2.00;;;;;;;;;;5022541;28;20076;-79
2020/12/18 16:02:19;;;;;;;3.83;2.05;;;;;;;;;;5023108;28;20072;-80
2020/12/18 16:04:47;;;;;;;6.45;2.60;;;;;;;;;;5005006;28;20069;-79
2020/12/18 16:07:13;;;;;;;5.13;2.20;;;;;;;;;;5024328;28;20046;-79
2020/12/18 16:09:40;;;;;;;5.47;2.30;;;;;;;;;;5005916;28;20505;-79
2020/12/18 16:12:07;;;;;;;8.18;2.70;;;;;;;;;;5007208;28;20054;-81
2020/12/18 16:14:33;;;;;;;8.93;2.70;;;;;;;;;;5022339;28;20470;-79
2020/12/18 16:17:00;;;;;;;6.95;2.70;;;;;;;;;;5021001;28;20038;-81
2020/12/18 16:19:26;;;;;;;9.80;3.10;;;;;;;;;;5005217;28;20440;-78
2020/12/18 16:21:53;;;;;;;7.90;2.67;;;;;;;;;;5007097;28;20046;-81
2020/12/18 16:24:20;;;;;;;8.60;3.22;;;;;;;;;;5024192;28;20034;-80
2020/12/18 16:26:47;;;;;;;11.27;3.50;;;;;;;;;;5024198;28;20065;-80
2020/12/18 16:29:14;;;;;;;7.13;3.78;;;;;;;;;;5005216;28;20575;-80
2020/12/18 16:31:40;;;;;;;10.73;3.70;;;;;;;;;;5005857;28;20041;-79
2020/12/18 16:34:06;;;;;;;8.30;4.00;;;;;;;;;;5004709;28;20261;-79
2020/12/18 16:36:33;;;;;;;9.55;5.20;;;;;;;;;;5005473;28;20065;-80
2020/12/18 16:39:00;;;;;;;10.48;5.13;;;;;;;;;;5022798;28;20042;-80